Airfield :
LOGIN :

Register | Disclaimer

   EN    FR    IT 

 










Legend :    VFR   Marginal VFR   IFR   Intensive IFR   Very Intensive IFR
Visi :
Ceiling :
>= 8 km
>= 3000ft
5 to 8 km
1000 to 3000 ft
1500m to 5 km
500 to 1000 ft
800 to 1500m
200 to 500 ft
< 800m
< 200 ft
Symbols :   Thunderstorms  Fog  Heavy snow  Heavy precipitations  Wind > 20 kt
SIGMETs :     Misc.  Thunderstorms  Icing  Turbulence  Mountain Waves  Volcanic Ashes






- Airport Elevation : 287 ft


LFRL - Lanveoc Poulmic

CURRENT METAR :
  • 160530Z AUTO 34005KT 9999 BKN004 OVC008 14/13 Q1003 TEMPO 4000 -RADZ

EXPIRED METARs :
  • 160500Z AUTO 34004KT 9999 OVC005/// ///TCU 14/13 Q1003
  • 160430Z AUTO 34004KT 7000 -RA BKN003/// BKN008/// BKN014/// ///TCU 14/14 Q1003
  • 160400Z AUTO 31007KT 4500 -RA BR BKN002 OVC008 14/14 Q1003
  • 160330Z AUTO 25011KT 4500 BR VV/// 15/15 Q1003
  • 160300Z AUTO 23013KT 2900 BR OVC002 15/15 Q1003

TAF TAF LFRL
Valid from the 16 at 06:00 until the 17 at 06:00 UTC


160500Z 1606/1706 32005KT 9999 SCT005 BKN010
TEMPO 1606/1609 4000 -RADZ BKN004
BECMG 1608/1610 BKN015
TEMPO 1703/1706 5000 SHRA BKN015 FEW020TCU
BECMG 1704/1706 20010KT



MET'MAP, your aeronautical weather chart ! - Copyright ORBIFLY December 2007 - Disclaimer

ORBIFLY MET'MAP TEAM :

Programming & Development : Alexandra Zaïnal
Concept & Development : Baudouin d'Aumeries
Co-Development & Prog : Marc-Olivier Méhu
Technical & hardware support : Manuel Goepfert

Contact : metmap@orbifly.com




SOURCES & CREDITS :

   NOAA